sensor_id;sensor_type;location;lat;lon;timestamp;P1;durP1;ratioP1;P2;durP2;ratioP2
80175;SDS011;69501;42.124;24.722;2023-06-10T00:01:47;5.28;;;4.78;;
80175;SDS011;69501;42.124;24.722;2023-06-10T00:04:16;7.97;;;4.88;;
80175;SDS011;69501;42.124;24.722;2023-06-10T00:06:45;6.63;;;4.80;;
80175;SDS011;69501;42.124;24.722;2023-06-10T00:09:13;6.70;;;5.07;;
80175;SDS011;69501;42.124;24.722;2023-06-10T00:11:39;5.88;;;5.20;;
80175;SDS011;69501;42.124;24.722;2023-06-10T00:14:05;7.90;;;4.97;;
80175;SDS011;69501;42.124;24.722;2023-06-10T00:16:31;6.20;;;5.60;;
80175;SDS011;69501;42.124;24.722;2023-06-10T00:18:58;5.65;;;4.80;;
80175;SDS011;69501;42.124;24.722;2023-06-10T00:21:25;4.75;;;4.45;;
80175;SDS011;69501;42.124;24.722;2023-06-10T00:23:51;7.13;;;5.10;;
80175;SDS011;69501;42.124;24.722;2023-06-10T00:26:17;6.18;;;5.35;;
80175;SDS011;69501;42.124;24.722;2023-06-10T00:28:43;6.82;;;4.85;;
80175;SDS011;69501;42.124;24.722;2023-06-10T00:31:10;8.63;;;5.30;;
80175;SDS011;69501;42.124;24.722;2023-06-10T00:33:36;9.13;;;5.45;;
80175;SDS011;69501;42.124;24.722;2023-06-10T00:36:01;5.30;;;4.80;;
80175;SDS011;69501;42.124;24.722;2023-06-10T00:38:27;8.57;;;5.13;;
80175;SDS011;69501;42.124;24.722;2023-06-10T00:40:53;5.85;;;5.00;;
80175;SDS011;69501;42.124;24.722;2023-06-10T00:43:18;6.40;;;5.50;;
80175;SDS011;69501;42.124;24.722;2023-06-10T00:45:44;7.43;;;5.22;;
80175;SDS011;69501;42.124;24.722;2023-06-10T00:48:09;8.13;;;4.82;;
80175;SDS011;69501;42.124;24.722;2023-06-10T00:50:35;7.53;;;5.22;;
80175;SDS011;69501;42.124;24.722;2023-06-10T00:53:04;6.78;;;4.72;;
80175;SDS011;69501;42.124;24.722;2023-06-10T00:55:31;5.78;;;4.93;;
80175;SDS011;69501;42.124;24.722;2023-06-10T00:57:57;6.03;;;4.97;;
80175;SDS011;69501;42.124;24.722;2023-06-10T01:00:25;5.22;;;4.82;;
80175;SDS011;69501;42.124;24.722;2023-06-10T01:02:51;8.68;;;5.18;;
80175;SDS011;69501;42.124;24.722;2023-06-10T01:05:20;5.55;;;4.93;;
80175;SDS011;69501;42.124;24.722;2023-06-10T01:10:33;5.25;;;4.75;;
80175;SDS011;69501;42.124;24.722;2023-06-10T01:13:06;4.93;;;4.43;;
80175;SDS011;69501;42.124;24.722;2023-06-10T01:15:37;8.18;;;5.20;;
80175;SDS011;69501;42.124;24.722;2023-06-10T01:18:04;7.10;;;5.15;;
80175;SDS011;69501;42.124;24.722;2023-06-10T01:20:35;5.20;;;4.75;;
80175;SDS011;69501;42.124;24.722;2023-06-10T01:23:05;6.50;;;5.07;;
80175;SDS011;69501;42.124;24.722;2023-06-10T01:25:31;6.78;;;5.78;;
80175;SDS011;69501;42.124;24.722;2023-06-10T01:30:29;5.72;;;5.18;;
80175;SDS011;69501;42.124;24.722;2023-06-10T01:33:02;7.00;;;5.78;;
80175;SDS011;69501;42.124;24.722;2023-06-10T01:35:30;6.03;;;5.43;;
80175;SDS011;69501;42.124;24.722;2023-06-10T01:40:48;5.32;;;4.80;;
80175;SDS011;69501;42.124;24.722;2023-06-10T01:43:15;8.25;;;4.88;;
80175;SDS011;69501;42.124;24.722;2023-06-10T01:45:40;7.97;;;5.28;;
80175;SDS011;69501;42.124;24.722;2023-06-10T01:48:06;6.30;;;4.95;;
80175;SDS011;69501;42.124;24.722;2023-06-10T01:50:32;6.30;;;4.88;;
80175;SDS011;69501;42.124;24.722;2023-06-10T01:52:58;7.30;;;4.93;;
80175;SDS011;69501;42.124;24.722;2023-06-10T01:55:24;6.80;;;4.85;;
80175;SDS011;69501;42.124;24.722;2023-06-10T01:57:50;5.63;;;5.00;;
80175;SDS011;69501;42.124;24.722;2023-06-10T02:00:16;5.88;;;4.85;;
80175;SDS011;69501;42.124;24.722;2023-06-10T02:02:42;5.30;;;4.88;;
80175;SDS011;69501;42.124;24.722;2023-06-10T02:05:08;7.53;;;5.32;;
80175;SDS011;69501;42.124;24.722;2023-06-10T02:07:34;5.97;;;5.22;;
80175;SDS011;69501;42.124;24.722;2023-06-10T02:09:59;5.50;;;5.00;;
80175;SDS011;69501;42.124;24.722;2023-06-10T02:12:25;8.20;;;5.65;;
80175;SDS011;69501;42.124;24.722;2023-06-10T02:14:51;7.50;;;5.00;;
80175;SDS011;69501;42.124;24.722;2023-06-10T02:17:16;9.35;;;5.93;;
80175;SDS011;69501;42.124;24.722;2023-06-10T02:19:42;5.60;;;5.20;;
80175;SDS011;69501;42.124;24.722;2023-06-10T02:22:08;8.38;;;5.85;;
80175;SDS011;69501;42.124;24.722;2023-06-10T02:24:35;7.32;;;5.72;;
80175;SDS011;69501;42.124;24.722;2023-06-10T02:27:03;7.45;;;6.25;;
80175;SDS011;69501;42.124;24.722;2023-06-10T02:29:31;7.00;;;6.28;;
80175;SDS011;69501;42.124;24.722;2023-06-10T02:31:58;6.30;;;5.70;;
80175;SDS011;69501;42.124;24.722;2023-06-10T02:34:24;6.68;;;6.18;;
80175;SDS011;69501;42.124;24.722;2023-06-10T02:36:50;6.93;;;6.22;;
80175;SDS011;69501;42.124;24.722;2023-06-10T02:39:16;8.63;;;5.88;;
80175;SDS011;69501;42.124;24.722;2023-06-10T02:41:42;6.65;;;6.03;;
80175;SDS011;69501;42.124;24.722;2023-06-10T02:44:07;8.07;;;5.82;;
80175;SDS011;69501;42.124;24.722;2023-06-10T02:46:33;8.25;;;6.72;;
80175;SDS011;69501;42.124;24.722;2023-06-10T02:48:58;9.82;;;6.22;;
80175;SDS011;69501;42.124;24.722;2023-06-10T02:51:24;6.95;;;5.78;;
80175;SDS011;69501;42.124;24.722;2023-06-10T02:53:50;6.90;;;6.20;;
80175;SDS011;69501;42.124;24.722;2023-06-10T02:56:16;6.70;;;5.85;;
80175;SDS011;69501;42.124;24.722;2023-06-10T02:58:42;7.72;;;6.05;;
80175;SDS011;69501;42.124;24.722;2023-06-10T03:01:08;9.15;;;5.93;;
80175;SDS011;69501;42.124;24.722;2023-06-10T03:03:35;6.28;;;5.65;;
80175;SDS011;69501;42.124;24.722;2023-06-10T03:06:01;8.02;;;5.50;;
80175;SDS011;69501;42.124;24.722;2023-06-10T03:08:28;7.03;;;6.25;;
80175;SDS011;69501;42.124;24.722;2023-06-10T03:10:53;7.50;;;5.55;;
80175;SDS011;69501;42.124;24.722;2023-06-10T03:13:19;7.30;;;5.32;;
80175;SDS011;69501;42.124;24.722;2023-06-10T03:15:46;10.68;;;6.15;;
80175;SDS011;69501;42.124;24.722;2023-06-10T03:18:11;6.82;;;5.47;;
80175;SDS011;69501;42.124;24.722;2023-06-10T03:20:37;6.10;;;4.78;;
80175;SDS011;69501;42.124;24.722;2023-06-10T03:23:04;6.20;;;5.10;;
80175;SDS011;69501;42.124;24.722;2023-06-10T03:25:33;10.52;;;8.52;;
80175;SDS011;69501;42.124;24.722;2023-06-10T03:27:58;18.27;;;12.38;;
80175;SDS011;69501;42.124;24.722;2023-06-10T03:30:24;13.43;;;11.65;;
80175;SDS011;69501;42.124;24.722;2023-06-10T03:32:50;13.57;;;11.80;;
80175;SDS011;69501;42.124;24.722;2023-06-10T03:35:15;16.70;;;12.80;;
80175;SDS011;69501;42.124;24.722;2023-06-10T03:37:42;13.18;;;11.20;;
80175;SDS011;69501;42.124;24.722;2023-06-10T03:40:08;14.27;;;10.65;;
80175;SDS011;69501;42.124;24.722;2023-06-10T03:42:34;11.88;;;10.27;;
80175;SDS011;69501;42.124;24.722;2023-06-10T03:45:00;11.02;;;9.85;;
80175;SDS011;69501;42.124;24.722;2023-06-10T03:47:26;10.45;;;9.45;;
80175;SDS011;69501;42.124;24.722;2023-06-10T03:50:05;9.52;;;8.73;;
80175;SDS011;69501;42.124;24.722;2023-06-10T03:52:33;18.23;;;8.75;;
80175;SDS011;69501;42.124;24.722;2023-06-10T03:54:59;11.60;;;7.55;;
80175;SDS011;69501;42.124;24.722;2023-06-10T03:57:25;8.45;;;7.50;;
80175;SDS011;69501;42.124;24.722;2023-06-10T03:59:51;9.85;;;7.55;;
80175;SDS011;69501;42.124;24.722;2023-06-10T04:02:16;11.70;;;7.28;;
80175;SDS011;69501;42.124;24.722;2023-06-10T04:04:42;8.45;;;7.10;;
80175;SDS011;69501;42.124;24.722;2023-06-10T04:07:08;9.07;;;6.50;;
80175;SDS011;69501;42.124;24.722;2023-06-10T04:09:34;9.90;;;6.63;;
80175;SDS011;69501;42.124;24.722;2023-06-10T04:12:01;8.10;;;7.30;;
80175;SDS011;69501;42.124;24.722;2023-06-10T04:14:27;11.75;;;7.15;;
80175;SDS011;69501;42.124;24.722;2023-06-10T04:16:53;10.57;;;6.80;;
80175;SDS011;69501;42.124;24.722;2023-06-10T04:19:19;7.63;;;6.35;;
80175;SDS011;69501;42.124;24.722;2023-06-10T04:21:45;8.63;;;5.25;;
80175;SDS011;69501;42.124;24.722;2023-06-10T04:24:10;12.38;;;7.00;;
80175;SDS011;69501;42.124;24.722;2023-06-10T04:26:37;11.80;;;7.75;;
80175;SDS011;69501;42.124;24.722;2023-06-10T04:29:03;7.90;;;7.07;;
80175;SDS011;69501;42.124;24.722;2023-06-10T04:31:29;13.30;;;7.18;;
80175;SDS011;69501;42.124;24.722;2023-06-10T04:33:54;8.77;;;6.55;;
80175;SDS011;69501;42.124;24.722;2023-06-10T04:36:20;6.90;;;6.30;;
80175;SDS011;69501;42.124;24.722;2023-06-10T04:38:46;7.22;;;6.05;;
80175;SDS011;69501;42.124;24.722;2023-06-10T04:41:12;7.88;;;6.50;;
80175;SDS011;69501;42.124;24.722;2023-06-10T04:43:38;8.25;;;6.43;;
80175;SDS011;69501;42.124;24.722;2023-06-10T04:46:04;8.85;;;6.35;;
80175;SDS011;69501;42.124;24.722;2023-06-10T04:48:30;9.77;;;6.03;;
80175;SDS011;69501;42.124;24.722;2023-06-10T04:50:56;8.32;;;5.80;;
80175;SDS011;69501;42.124;24.722;2023-06-10T04:53:21;8.23;;;6.43;;
80175;SDS011;69501;42.124;24.722;2023-06-10T04:55:49;10.43;;;6.90;;
80175;SDS011;69501;42.124;24.722;2023-06-10T04:58:15;14.95;;;6.75;;
80175;SDS011;69501;42.124;24.722;2023-06-10T05:00:41;11.90;;;7.40;;
80175;SDS011;69501;42.124;24.722;2023-06-10T05:03:08;11.45;;;9.20;;
80175;SDS011;69501;42.124;24.722;2023-06-10T05:05:34;12.35;;;8.80;;
80175;SDS011;69501;42.124;24.722;2023-06-10T05:07:59;10.77;;;8.13;;
80175;SDS011;69501;42.124;24.722;2023-06-10T05:10:25;15.52;;;7.75;;
80175;SDS011;69501;42.124;24.722;2023-06-10T05:12:51;8.00;;;7.07;;
80175;SDS011;69501;42.124;24.722;2023-06-10T05:15:16;11.60;;;7.97;;
80175;SDS011;69501;42.124;24.722;2023-06-10T05:17:42;9.13;;;7.47;;
80175;SDS011;69501;42.124;24.722;2023-06-10T05:20:08;9.48;;;6.63;;
80175;SDS011;69501;42.124;24.722;2023-06-10T05:22:34;10.07;;;6.90;;
80175;SDS011;69501;42.124;24.722;2023-06-10T05:25:00;8.85;;;6.28;;
80175;SDS011;69501;42.124;24.722;2023-06-10T05:27:26;11.15;;;6.80;;
80175;SDS011;69501;42.124;24.722;2023-06-10T05:29:51;9.85;;;6.70;;
80175;SDS011;69501;42.124;24.722;2023-06-10T05:32:17;10.50;;;7.15;;
80175;SDS011;69501;42.124;24.722;2023-06-10T05:34:43;15.07;;;6.78;;
80175;SDS011;69501;42.124;24.722;2023-06-10T05:37:09;10.10;;;6.60;;
80175;SDS011;69501;42.124;24.722;2023-06-10T05:39:35;9.02;;;7.28;;
80175;SDS011;69501;42.124;24.722;2023-06-10T05:42:03;9.13;;;6.20;;
80175;SDS011;69501;42.124;24.722;2023-06-10T05:44:31;8.73;;;6.63;;
80175;SDS011;69501;42.124;24.722;2023-06-10T05:46:57;13.60;;;7.22;;
80175;SDS011;69501;42.124;24.722;2023-06-10T05:49:23;10.43;;;7.13;;
80175;SDS011;69501;42.124;24.722;2023-06-10T05:51:49;9.57;;;7.10;;
80175;SDS011;69501;42.124;24.722;2023-06-10T05:54:15;10.95;;;6.35;;
80175;SDS011;69501;42.124;24.722;2023-06-10T05:56:40;7.68;;;6.90;;
80175;SDS011;69501;42.124;24.722;2023-06-10T05:59:06;7.40;;;6.78;;
80175;SDS011;69501;42.124;24.722;2023-06-10T06:01:32;7.72;;;6.70;;
80175;SDS011;69501;42.124;24.722;2023-06-10T06:03:57;10.05;;;6.70;;
80175;SDS011;69501;42.124;24.722;2023-06-10T06:06:23;13.68;;;6.82;;
80175;SDS011;69501;42.124;24.722;2023-06-10T06:08:49;9.27;;;6.60;;
80175;SDS011;69501;42.124;24.722;2023-06-10T06:11:14;8.43;;;6.22;;
80175;SDS011;69501;42.124;24.722;2023-06-10T06:13:40;7.50;;;6.10;;
80175;SDS011;69501;42.124;24.722;2023-06-10T06:16:07;8.93;;;6.63;;
80175;SDS011;69501;42.124;24.722;2023-06-10T06:18:32;8.57;;;7.05;;
80175;SDS011;69501;42.124;24.722;2023-06-10T06:20:59;8.73;;;6.07;;
80175;SDS011;69501;42.124;24.722;2023-06-10T06:23:25;11.52;;;6.97;;
80175;SDS011;69501;42.124;24.722;2023-06-10T06:25:50;8.57;;;6.03;;
80175;SDS011;69501;42.124;24.722;2023-06-10T06:28:16;9.35;;;6.68;;
80175;SDS011;69501;42.124;24.722;2023-06-10T06:30:43;11.55;;;7.07;;
80175;SDS011;69501;42.124;24.722;2023-06-10T06:33:09;10.18;;;6.80;;
80175;SDS011;69501;42.124;24.722;2023-06-10T06:35:35;7.78;;;6.50;;
80175;SDS011;69501;42.124;24.722;2023-06-10T06:38:03;12.80;;;7.47;;
80175;SDS011;69501;42.124;24.722;2023-06-10T06:40:29;13.38;;;7.78;;
80175;SDS011;69501;42.124;24.722;2023-06-10T06:42:54;11.27;;;8.77;;
80175;SDS011;69501;42.124;24.722;2023-06-10T06:45:20;11.20;;;8.05;;
80175;SDS011;69501;42.124;24.722;2023-06-10T06:47:46;12.18;;;9.40;;
80175;SDS011;69501;42.124;24.722;2023-06-10T06:50:11;13.55;;;8.90;;
80175;SDS011;69501;42.124;24.722;2023-06-10T06:52:37;11.38;;;7.55;;
80175;SDS011;69501;42.124;24.722;2023-06-10T06:55:03;9.50;;;8.00;;
80175;SDS011;69501;42.124;24.722;2023-06-10T06:57:29;12.48;;;8.07;;
80175;SDS011;69501;42.124;24.722;2023-06-10T06:59:55;11.20;;;8.55;;
80175;SDS011;69501;42.124;24.722;2023-06-10T07:02:20;10.10;;;7.70;;
80175;SDS011;69501;42.124;24.722;2023-06-10T07:04:46;13.13;;;7.55;;
80175;SDS011;69501;42.124;24.722;2023-06-10T07:07:14;10.95;;;7.85;;
80175;SDS011;69501;42.124;24.722;2023-06-10T07:09:40;10.55;;;8.15;;
80175;SDS011;69501;42.124;24.722;2023-06-10T07:12:06;10.15;;;8.18;;
80175;SDS011;69501;42.124;24.722;2023-06-10T07:14:32;14.23;;;8.07;;
80175;SDS011;69501;42.124;24.722;2023-06-10T07:16:57;11.65;;;7.68;;
80175;SDS011;69501;42.124;24.722;2023-06-10T07:19:23;10.43;;;7.75;;
80175;SDS011;69501;42.124;24.722;2023-06-10T07:21:49;9.98;;;8.48;;
80175;SDS011;69501;42.124;24.722;2023-06-10T07:24:14;11.82;;;8.73;;
80175;SDS011;69501;42.124;24.722;2023-06-10T07:26:40;13.15;;;8.07;;
80175;SDS011;69501;42.124;24.722;2023-06-10T07:29:06;10.75;;;7.70;;
80175;SDS011;69501;42.124;24.722;2023-06-10T07:31:31;7.82;;;6.80;;
80175;SDS011;69501;42.124;24.722;2023-06-10T07:33:57;9.52;;;7.20;;
80175;SDS011;69501;42.124;24.722;2023-06-10T07:36:23;11.02;;;7.78;;
80175;SDS011;69501;42.124;24.722;2023-06-10T07:38:48;10.07;;;7.70;;
80175;SDS011;69501;42.124;24.722;2023-06-10T07:41:14;14.60;;;8.18;;
80175;SDS011;69501;42.124;24.722;2023-06-10T07:43:42;9.50;;;7.43;;
80175;SDS011;69501;42.124;24.722;2023-06-10T07:46:08;12.90;;;8.23;;
80175;SDS011;69501;42.124;24.722;2023-06-10T07:48:34;15.52;;;8.60;;
80175;SDS011;69501;42.124;24.722;2023-06-10T07:50:59;9.75;;;8.23;;
80175;SDS011;69501;42.124;24.722;2023-06-10T07:53:25;10.38;;;7.88;;
80175;SDS011;69501;42.124;24.722;2023-06-10T07:55:51;10.65;;;7.05;;
80175;SDS011;69501;42.124;24.722;2023-06-10T07:58:16;10.23;;;7.75;;
80175;SDS011;69501;42.124;24.722;2023-06-10T08:00:42;9.18;;;6.60;;
80175;SDS011;69501;42.124;24.722;2023-06-10T08:03:08;11.18;;;7.10;;
80175;SDS011;69501;42.124;24.722;2023-06-10T08:05:34;11.43;;;6.38;;
80175;SDS011;69501;42.124;24.722;2023-06-10T08:07:59;8.70;;;7.13;;
80175;SDS011;69501;42.124;24.722;2023-06-10T08:10:25;9.80;;;7.43;;
80175;SDS011;69501;42.124;24.722;2023-06-10T08:12:51;13.75;;;7.22;;
80175;SDS011;69501;42.124;24.722;2023-06-10T08:15:16;14.93;;;7.22;;
80175;SDS011;69501;42.124;24.722;2023-06-10T08:17:42;10.30;;;7.03;;
80175;SDS011;69501;42.124;24.722;2023-06-10T08:20:08;10.90;;;7.45;;
80175;SDS011;69501;42.124;24.722;2023-06-10T08:22:33;13.55;;;6.95;;
80175;SDS011;69501;42.124;24.722;2023-06-10T08:24:59;8.20;;;6.70;;
80175;SDS011;69501;42.124;24.722;2023-06-10T08:27:25;15.75;;;6.32;;
80175;SDS011;69501;42.124;24.722;2023-06-10T08:29:50;8.57;;;6.85;;
80175;SDS011;69501;42.124;24.722;2023-06-10T08:32:16;6.78;;;6.18;;
80175;SDS011;69501;42.124;24.722;2023-06-10T08:34:41;7.82;;;6.38;;
80175;SDS011;69501;42.124;24.722;2023-06-10T08:37:07;6.47;;;5.18;;
80175;SDS011;69501;42.124;24.722;2023-06-10T08:39:33;5.75;;;5.10;;
80175;SDS011;69501;42.124;24.722;2023-06-10T08:44:36;7.15;;;5.40;;
80175;SDS011;69501;42.124;24.722;2023-06-10T08:47:15;9.13;;;5.45;;
80175;SDS011;69501;42.124;24.722;2023-06-10T08:49:45;9.98;;;5.30;;
80175;SDS011;69501;42.124;24.722;2023-06-10T08:52:16;11.23;;;6.82;;
80175;SDS011;69501;42.124;24.722;2023-06-10T08:54:46;9.68;;;6.40;;
80175;SDS011;69501;42.124;24.722;2023-06-10T08:57:20;7.10;;;5.75;;
80175;SDS011;69501;42.124;24.722;2023-06-10T08:59:46;9.50;;;5.53;;
80175;SDS011;69501;42.124;24.722;2023-06-10T09:02:13;5.95;;;5.20;;
80175;SDS011;69501;42.124;24.722;2023-06-10T09:04:41;6.10;;;4.65;;
80175;SDS011;69501;42.124;24.722;2023-06-10T09:07:08;6.68;;;6.10;;
80175;SDS011;69501;42.124;24.722;2023-06-10T09:09:35;5.03;;;4.63;;
80175;SDS011;69501;42.124;24.722;2023-06-10T09:12:02;6.22;;;4.40;;
80175;SDS011;69501;42.124;24.722;2023-06-10T09:14:28;6.03;;;4.50;;
80175;SDS011;69501;42.124;24.722;2023-06-10T09:16:54;5.97;;;4.70;;
80175;SDS011;69501;42.124;24.722;2023-06-10T09:19:23;5.00;;;4.60;;
80175;SDS011;69501;42.124;24.722;2023-06-10T09:21:52;4.88;;;4.45;;
80175;SDS011;69501;42.124;24.722;2023-06-10T09:24:18;4.85;;;4.40;;
80175;SDS011;69501;42.124;24.722;2023-06-10T09:26:43;6.85;;;5.65;;
80175;SDS011;69501;42.124;24.722;2023-06-10T09:29:10;6.05;;;4.85;;
80175;SDS011;69501;42.124;24.722;2023-06-10T09:31:37;4.80;;;4.40;;
80175;SDS011;69501;42.124;24.722;2023-06-10T09:36:34;5.65;;;5.15;;
80175;SDS011;69501;42.124;24.722;2023-06-10T09:39:01;6.18;;;5.68;;
80175;SDS011;69501;42.124;24.722;2023-06-10T09:41:34;7.28;;;5.18;;
80175;SDS011;69501;42.124;24.722;2023-06-10T09:44:00;5.10;;;4.63;;
80175;SDS011;69501;42.124;24.722;2023-06-10T09:46:30;5.72;;;4.93;;
80175;SDS011;69501;42.124;24.722;2023-06-10T09:48:57;7.93;;;5.00;;
80175;SDS011;69501;42.124;24.722;2023-06-10T09:51:23;6.95;;;5.82;;
80175;SDS011;69501;42.124;24.722;2023-06-10T09:53:50;10.40;;;6.00;;
80175;SDS011;69501;42.124;24.722;2023-06-10T09:56:16;9.77;;;5.32;;
80175;SDS011;69501;42.124;24.722;2023-06-10T09:58:42;11.63;;;5.70;;
80175;SDS011;69501;42.124;24.722;2023-06-10T10:01:12;11.85;;;6.45;;
80175;SDS011;69501;42.124;24.722;2023-06-10T10:03:49;8.38;;;6.25;;
80175;SDS011;69501;42.124;24.722;2023-06-10T10:06:16;6.15;;;5.30;;
80175;SDS011;69501;42.124;24.722;2023-06-10T10:08:43;7.60;;;5.72;;
80175;SDS011;69501;42.124;24.722;2023-06-10T10:11:14;7.78;;;6.15;;
80175;SDS011;69501;42.124;24.722;2023-06-10T10:13:42;5.80;;;5.30;;
80175;SDS011;69501;42.124;24.722;2023-06-10T10:22:26;6.68;;;4.68;;
80175;SDS011;69501;42.124;24.722;2023-06-10T10:24:57;5.47;;;4.90;;
80175;SDS011;69501;42.124;24.722;2023-06-10T10:27:27;7.35;;;5.72;;
80175;SDS011;69501;42.124;24.722;2023-06-10T10:29:55;8.57;;;5.22;;
80175;SDS011;69501;42.124;24.722;2023-06-10T10:32:34;6.20;;;5.60;;
80175;SDS011;69501;42.124;24.722;2023-06-10T10:35:07;5.32;;;4.82;;
80175;SDS011;69501;42.124;24.722;2023-06-10T10:37:35;6.40;;;5.80;;
80175;SDS011;69501;42.124;24.722;2023-06-10T10:40:01;6.18;;;5.53;;
80175;SDS011;69501;42.124;24.722;2023-06-10T10:42:29;7.03;;;6.05;;
80175;SDS011;69501;42.124;24.722;2023-06-10T10:44:55;11.13;;;6.13;;
80175;SDS011;69501;42.124;24.722;2023-06-10T10:47:21;6.25;;;5.68;;
80175;SDS011;69501;42.124;24.722;2023-06-10T10:49:51;8.93;;;5.47;;
80175;SDS011;69501;42.124;24.722;2023-06-10T10:52:24;6.05;;;5.20;;
80175;SDS011;69501;42.124;24.722;2023-06-10T10:54:52;5.40;;;4.90;;
80175;SDS011;69501;42.124;24.722;2023-06-10T10:57:20;15.57;;;6.20;;
80175;SDS011;69501;42.124;24.722;2023-06-10T11:02:32;6.10;;;4.60;;
80175;SDS011;69501;42.124;24.722;2023-06-10T11:04:58;5.50;;;5.00;;
80175;SDS011;69501;42.124;24.722;2023-06-10T11:07:26;8.10;;;5.32;;
80175;SDS011;69501;42.124;24.722;2023-06-10T11:09:57;6.53;;;5.88;;
80175;SDS011;69501;42.124;24.722;2023-06-10T11:15:10;7.47;;;5.35;;
80175;SDS011;69501;42.124;24.722;2023-06-10T11:18:06;5.50;;;5.00;;
80175;SDS011;69501;42.124;24.722;2023-06-10T11:21:16;7.80;;;5.40;;
80175;SDS011;69501;42.124;24.722;2023-06-10T11:29:06;5.78;;;4.95;;
80175;SDS011;69501;42.124;24.722;2023-06-10T11:31:39;6.80;;;4.70;;
80175;SDS011;69501;42.124;24.722;2023-06-10T11:34:09;5.45;;;4.32;;
80175;SDS011;69501;42.124;24.722;2023-06-10T11:36:36;11.80;;;5.20;;
80175;SDS011;69501;42.124;24.722;2023-06-10T11:39:05;6.20;;;4.93;;
80175;SDS011;69501;42.124;24.722;2023-06-10T11:41:32;6.78;;;4.22;;
80175;SDS011;69501;42.124;24.722;2023-06-10T11:44:02;6.18;;;4.68;;
80175;SDS011;69501;42.124;24.722;2023-06-10T11:46:38;4.43;;;4.03;;
80175;SDS011;69501;42.124;24.722;2023-06-10T11:49:04;7.15;;;4.47;;
80175;SDS011;69501;42.124;24.722;2023-06-10T11:51:35;6.60;;;4.03;;
80175;SDS011;69501;42.124;24.722;2023-06-10T11:54:02;6.80;;;5.20;;
80175;SDS011;69501;42.124;24.722;2023-06-10T11:56:31;7.25;;;5.30;;
80175;SDS011;69501;42.124;24.722;2023-06-10T11:59:01;5.72;;;5.22;;
80175;SDS011;69501;42.124;24.722;2023-06-10T12:01:32;5.45;;;5.05;;
80175;SDS011;69501;42.124;24.722;2023-06-10T12:04:09;5.68;;;5.18;;
80175;SDS011;69501;42.124;24.722;2023-06-10T12:09:24;4.85;;;4.35;;
80175;SDS011;69501;42.124;24.722;2023-06-10T12:11:53;4.65;;;4.28;;
80175;SDS011;69501;42.124;24.722;2023-06-10T12:20:00;5.00;;;4.60;;
80175;SDS011;69501;42.124;24.722;2023-06-10T12:22:26;5.38;;;4.75;;
80175;SDS011;69501;42.124;24.722;2023-06-10T12:24:59;5.50;;;4.93;;
80175;SDS011;69501;42.124;24.722;2023-06-10T12:27:26;7.28;;;5.20;;
80175;SDS011;69501;42.124;24.722;2023-06-10T12:29:58;6.50;;;5.47;;
80175;SDS011;69501;42.124;24.722;2023-06-10T12:32:38;6.78;;;5.05;;
80175;SDS011;69501;42.124;24.722;2023-06-10T12:35:27;6.78;;;4.60;;
80175;SDS011;69501;42.124;24.722;2023-06-10T12:37:59;6.82;;;5.30;;
80175;SDS011;69501;42.124;24.722;2023-06-10T12:40:27;8.43;;;5.75;;
80175;SDS011;69501;42.124;24.722;2023-06-10T12:42:54;13.52;;;5.55;;
80175;SDS011;69501;42.124;24.722;2023-06-10T12:45:30;5.30;;;4.80;;
80175;SDS011;69501;42.124;24.722;2023-06-10T12:48:30;8.43;;;5.57;;
80175;SDS011;69501;42.124;24.722;2023-06-10T12:53:18;6.05;;;5.47;;
80175;SDS011;69501;42.124;24.722;2023-06-10T12:55:44;5.50;;;5.00;;
80175;SDS011;69501;42.124;24.722;2023-06-10T12:58:10;7.30;;;6.00;;
80175;SDS011;69501;42.124;24.722;2023-06-10T13:00:37;8.50;;;5.40;;
80175;SDS011;69501;42.124;24.722;2023-06-10T13:03:03;10.82;;;5.20;;
80175;SDS011;69501;42.124;24.722;2023-06-10T13:05:31;6.00;;;5.20;;
80175;SDS011;69501;42.124;24.722;2023-06-10T13:07:57;6.93;;;6.22;;
80175;SDS011;69501;42.124;24.722;2023-06-10T13:10:23;7.55;;;5.28;;
80175;SDS011;69501;42.124;24.722;2023-06-10T13:12:50;7.95;;;4.97;;
80175;SDS011;69501;42.124;24.722;2023-06-10T13:15:16;9.90;;;5.55;;
80175;SDS011;69501;42.124;24.722;2023-06-10T13:17:46;5.40;;;4.90;;
80175;SDS011;69501;42.124;24.722;2023-06-10T13:20:14;6.22;;;4.50;;
80175;SDS011;69501;42.124;24.722;2023-06-10T13:22:41;7.25;;;4.60;;
80175;SDS011;69501;42.124;24.722;2023-06-10T13:25:07;7.18;;;4.80;;
80175;SDS011;69501;42.124;24.722;2023-06-10T13:27:36;7.03;;;4.97;;
80175;SDS011;69501;42.124;24.722;2023-06-10T13:30:06;8.75;;;5.13;;
80175;SDS011;69501;42.124;24.722;2023-06-10T13:32:33;9.20;;;5.45;;
80175;SDS011;69501;42.124;24.722;2023-06-10T13:34:59;6.65;;;6.00;;
80175;SDS011;69501;42.124;24.722;2023-06-10T13:37:25;7.85;;;4.97;;
80175;SDS011;69501;42.124;24.722;2023-06-10T13:39:51;5.97;;;5.35;;
80175;SDS011;69501;42.124;24.722;2023-06-10T13:42:17;6.75;;;4.97;;
80175;SDS011;69501;42.124;24.722;2023-06-10T13:44:43;13.13;;;5.18;;
80175;SDS011;69501;42.124;24.722;2023-06-10T13:47:09;6.45;;;4.95;;
80175;SDS011;69501;42.124;24.722;2023-06-10T13:49:34;4.90;;;4.50;;
80175;SDS011;69501;42.124;24.722;2023-06-10T13:52:00;6.03;;;4.93;;
80175;SDS011;69501;42.124;24.722;2023-06-10T13:54:26;5.07;;;4.65;;
80175;SDS011;69501;42.124;24.722;2023-06-10T13:56:52;4.95;;;4.30;;
80175;SDS011;69501;42.124;24.722;2023-06-10T13:59:19;5.00;;;4.38;;
80175;SDS011;69501;42.124;24.722;2023-06-10T14:01:45;5.68;;;4.88;;
80175;SDS011;69501;42.124;24.722;2023-06-10T14:04:11;8.43;;;4.60;;
80175;SDS011;69501;42.124;24.722;2023-06-10T14:06:36;7.10;;;4.40;;
80175;SDS011;69501;42.124;24.722;2023-06-10T14:09:02;6.35;;;4.20;;
80175;SDS011;69501;42.124;24.722;2023-06-10T14:11:28;4.43;;;4.00;;
80175;SDS011;69501;42.124;24.722;2023-06-10T14:13:54;5.18;;;4.72;;
80175;SDS011;69501;42.124;24.722;2023-06-10T14:16:23;5.57;;;4.97;;
80175;SDS011;69501;42.124;24.722;2023-06-10T14:18:49;8.32;;;4.78;;
80175;SDS011;69501;42.124;24.722;2023-06-10T14:21:18;8.27;;;5.18;;
80175;SDS011;69501;42.124;24.722;2023-06-10T14:23:44;6.85;;;4.78;;
80175;SDS011;69501;42.124;24.722;2023-06-10T14:26:10;6.85;;;4.75;;
80175;SDS011;69501;42.124;24.722;2023-06-10T14:28:36;5.50;;;5.00;;
80175;SDS011;69501;42.124;24.722;2023-06-10T14:31:05;8.88;;;4.80;;
80175;SDS011;69501;42.124;24.722;2023-06-10T14:33:34;5.50;;;5.03;;
80175;SDS011;69501;42.124;24.722;2023-06-10T14:36:00;6.05;;;4.55;;
80175;SDS011;69501;42.124;24.722;2023-06-10T14:38:26;5.55;;;4.20;;
80175;SDS011;69501;42.124;24.722;2023-06-10T14:40:52;4.97;;;4.40;;
80175;SDS011;69501;42.124;24.722;2023-06-10T14:43:18;7.82;;;4.38;;
80175;SDS011;69501;42.124;24.722;2023-06-10T14:45:43;6.00;;;4.85;;
80175;SDS011;69501;42.124;24.722;2023-06-10T14:48:10;6.05;;;4.63;;
80175;SDS011;69501;42.124;24.722;2023-06-10T14:50:36;7.93;;;4.25;;
80175;SDS011;69501;42.124;24.722;2023-06-10T14:53:06;4.68;;;4.28;;
80175;SDS011;69501;42.124;24.722;2023-06-10T14:55:32;5.43;;;4.10;;
80175;SDS011;69501;42.124;24.722;2023-06-10T14:57:58;4.47;;;3.83;;
80175;SDS011;69501;42.124;24.722;2023-06-10T15:00:24;5.95;;;4.63;;
80175;SDS011;69501;42.124;24.722;2023-06-10T15:02:50;8.50;;;4.60;;
80175;SDS011;69501;42.124;24.722;2023-06-10T15:05:23;4.63;;;4.22;;
80175;SDS011;69501;42.124;24.722;2023-06-10T15:07:48;7.65;;;4.43;;
80175;SDS011;69501;42.124;24.722;2023-06-10T15:10:14;5.97;;;3.97;;
80175;SDS011;69501;42.124;24.722;2023-06-10T15:12:41;5.57;;;3.88;;